Terminal Aerodrome Forecast
Issued by NWS

Home | Current Version | Previous Version | Text Only | Print | Product List | Glossary On
Versions: 1 2 3 4 5 6 7 8 9 10 11 12 13 14
000
FTAK31 PAJN 301700
TAFAYA
TAF
PAYA 301740Z 3018/3118 08008KT P6SM -SHRA SCT025 OVC040
     FM302100 08005KT P6SM -SHRA SCT030 OVC045
     FM310000 VRB03KT P6SM VCSH BKN050 OVC100
     FM310300 00000KT P6SM BKN150
     FM311200 00000KT P6SM VCSH OVC100
     FM311500 VRB03KT P6SM -RA BKN040 OVC080
      AMD LTD TO CLD VIS AND WIND 3101/3110=

USA.gov is the U.S. government's official web portal to all federal, state and local government web resources and services.